Time;durP1;ratioP1;P1;durP2;ratioP2;P2;SDS_P1;SDS_P2;PMS_P1;PMS_P2;Temp;Humidity;BMP_temperature;BMP_pressure;BME280_temperature;BME280_humidity;BME280_pressure;Samples;Min_cycle;Max_cycle;Signal;HPM_P1;HPM_P2
2022/08/14 00:01:32;;;;;;;7.18;5.95;;;;;;;15.90;75.11;100977.59;10427910;28;20365;-75
2022/08/14 00:06:32;;;;;;;9.90;6.43;;;;;;;15.73;75.70;100973.56;10427225;28;20069;-74
2022/08/14 00:11:33;;;;;;;9.43;6.43;;;;;;;15.62;76.17;100973.25;10428122;28;20060;-74
2022/08/14 00:16:33;;;;;;;5.97;5.38;;;;;;;15.50;76.11;100969.41;10443809;28;20373;-74
2022/08/14 00:21:34;;;;;;;9.80;7.22;;;;;;;15.48;75.97;100957.03;10409734;28;20132;-74
2022/08/14 00:26:35;;;;;;;9.40;6.47;;;;;;;15.40;76.88;100955.06;10426304;28;20045;-74
2022/08/14 00:31:35;;;;;;;8.82;6.20;;;;;;;15.31;76.84;100951.25;10425860;28;20112;-74
2022/08/14 00:36:36;;;;;;;9.55;6.95;;;;;;;15.22;77.07;100936.97;10443015;28;20035;-74
2022/08/14 00:41:36;;;;;;;9.10;6.68;;;;;;;15.17;77.90;100941.19;10444077;28;20037;-74
2022/08/14 00:46:37;;;;;;;16.35;7.20;;;;;;;15.15;79.65;100937.63;10443653;28;20497;-75
2022/08/14 00:51:38;;;;;;;12.43;9.68;;;;;;;15.10;80.07;100929.59;10408806;28;20045;-74
2022/08/14 00:56:39;;;;;;;8.85;6.72;;;;;;;15.16;79.42;100936.78;10409038;28;20053;-75
2022/08/14 01:01:39;;;;;;;8.75;6.38;;;;;;;15.28;78.85;100931.00;10426041;28;20040;-74
2022/08/14 01:06:40;;;;;;;8.30;7.13;;;;;;;15.22;78.84;100910.59;10423836;28;20370;-74
2022/08/14 01:11:40;;;;;;;9.93;6.75;;;;;;;15.30;78.19;100902.00;10425233;28;20048;-74
2022/08/14 01:16:41;;;;;;;7.18;6.40;;;;;;;15.25;77.66;100894.88;10398539;28;20122;-74
2022/08/14 01:21:44;;;;;;;11.00;6.70;;;;;;;15.27;77.18;100885.25;10381047;28;20498;-74
2022/08/14 01:26:45;;;;;;;14.73;6.38;;;;;;;15.25;77.30;100880.81;10390464;28;20144;-74
2022/08/14 01:31:48;;;;;;;9.18;6.18;;;;;;;15.26;76.39;100880.84;10423984;28;20110;-74
2022/08/14 01:36:49;;;;;;;7.07;5.53;;;;;;;15.29;76.81;100874.78;10404916;28;20040;-74
2022/08/14 01:41:56;;;;;;;9.90;6.13;;;;;;;15.32;76.18;100868.66;10416596;28;20496;-74
2022/08/14 01:46:57;;;;;;;8.38;7.03;;;;;;;15.24;75.82;100866.72;10379675;28;20033;-73
2022/08/14 01:51:58;;;;;;;9.02;7.63;;;;;;;15.27;77.96;100864.16;10349975;28;20040;-74
2022/08/14 01:56:58;;;;;;;8.00;6.60;;;;;;;15.29;77.14;100871.22;10382004;28;20030;-74
2022/08/14 02:02:02;;;;;;;9.70;5.97;;;;;;;15.21;76.57;100876.28;10382823;28;20048;-73
2022/08/14 02:07:03;;;;;;;6.75;5.25;;;;;;;15.10;76.24;100871.59;10381017;28;20042;-73
2022/08/14 02:12:07;;;;;;;12.55;5.93;;;;;;;15.02;77.22;100862.56;10382910;28;20041;-73
2022/08/14 02:17:12;;;;;;;6.35;5.75;;;;;;;15.03;77.53;100858.19;10381420;28;20067;-73
2022/08/14 02:22:12;;;;;;;7.43;6.32;;;;;;;15.06;78.65;100861.81;10399602;28;20041;-73
2022/08/14 02:27:13;;;;;;;7.82;6.28;;;;;;;14.98;78.82;100860.69;10398805;28;20040;-74
2022/08/14 02:32:15;;;;;;;9.20;6.55;;;;;;;14.97;78.95;100866.81;10382396;28;20083;-73
2022/08/14 02:37:16;;;;;;;7.63;6.53;;;;;;;15.03;79.04;100858.19;10399360;28;20037;-74
2022/08/14 02:42:20;;;;;;;12.50;7.23;;;;;;;15.03;78.51;100861.72;10398749;28;20478;-73
2022/08/14 02:47:21;;;;;;;8.18;6.60;;;;;;;15.04;78.17;100855.59;10381391;28;20033;-73
2022/08/14 02:52:22;;;;;;;9.38;6.40;;;;;;;15.05;78.27;100845.94;10425723;28;20120;-73
2022/08/14 02:57:23;;;;;;;8.18;6.68;;;;;;;15.03;78.08;100850.28;10429214;28;20037;-73
2022/08/14 03:02:25;;;;;;;12.70;8.05;;;;;;;14.89;78.44;100840.22;10414358;28;20124;-74
2022/08/14 03:07:26;;;;;;;7.60;6.70;;;;;;;14.80;79.11;100832.03;10377980;28;20103;-73
2022/08/14 03:12:26;;;;;;;8.48;7.30;;;;;;;14.71;79.81;100830.06;10426659;28;20147;-73
2022/08/14 03:17:27;;;;;;;9.05;7.45;;;;;;;14.63;80.67;100819.22;10427902;28;20041;-73
2022/08/14 03:22:28;;;;;;;9.20;8.25;;;;;;;14.58;80.97;100830.50;10430036;28;20111;-73
2022/08/14 03:27:30;;;;;;;14.10;9.63;;;;;;;14.52;81.63;100828.53;10446488;28;20033;-73
2022/08/14 03:32:34;;;;;;;10.45;7.75;;;;;;;14.39;81.68;100829.91;10428118;28;20381;-73
2022/08/14 03:37:35;;;;;;;9.20;7.70;;;;;;;14.32;82.90;100820.91;10445759;28;20048;-73
2022/08/14 03:42:35;;;;;;;11.57;8.20;;;;;;;14.26;83.26;100820.72;10428935;28;20123;-73
2022/08/14 03:47:39;;;;;;;11.70;9.02;;;;;;;14.24;84.55;100819.78;10408826;28;20026;-73
2022/08/14 03:52:41;;;;;;;9.98;8.88;;;;;;;14.16;84.78;100816.91;10389424;28;20033;-73
2022/08/14 03:57:42;;;;;;;11.20;8.80;;;;;;;14.12;85.28;100816.75;10388837;28;20073;-73
2022/08/14 04:02:43;;;;;;;11.23;9.07;;;;;;;14.07;85.12;100816.63;10404038;28;20053;-73
2022/08/14 04:07:43;;;;;;;9.95;8.32;;;;;;;14.05;85.18;100813.03;10405141;28;20128;-73
2022/08/14 04:12:44;;;;;;;11.13;9.38;;;;;;;14.07;84.71;100812.25;10403423;28;20109;-73
2022/08/14 04:17:45;;;;;;;11.30;8.90;;;;;;;13.97;85.37;100806.63;10431516;28;20045;-74
2022/08/14 04:22:46;;;;;;;9.93;8.73;;;;;;;13.86;85.59;100801.00;10388191;28;20389;-73
2022/08/14 04:27:46;;;;;;;14.32;9.23;;;;;;;13.76;86.46;100805.97;10408038;28;20060;-73
2022/08/14 04:32:47;;;;;;;12.38;9.50;;;;;;;13.72;86.91;100797.94;10427283;28;20112;-74
2022/08/14 04:48:25;;;;;;;10.88;9.77;;;;;;;13.87;87.89;100785.28;10361252;28;20053;-73
2022/08/14 04:53:28;;;;;;;11.95;10.02;;;;;;;13.93;87.86;100787.22;10357520;28;20037;-73
2022/08/14 04:58:29;;;;;;;11.05;9.05;;;;;;;14.00;88.16;100778.69;10339600;28;20049;-73
2022/08/14 05:03:32;;;;;;;12.52;10.68;;;;;;;14.10;87.57;100771.97;10343278;28;20044;-73
2022/08/14 05:08:32;;;;;;;11.88;9.25;;;;;;;14.23;87.55;100767.97;10360187;28;20119;-73
2022/08/14 05:13:33;;;;;;;12.10;9.40;;;;;;;14.40;87.32;100765.88;10343759;28;20042;-74
2022/08/14 05:18:36;;;;;;;10.93;8.95;;;;;;;14.65;86.32;100766.63;10358341;28;20096;-74
2022/08/14 05:23:38;;;;;;;12.13;10.43;;;;;;;14.79;85.98;100767.94;10341271;28;20045;-74
2022/08/14 05:28:42;;;;;;;15.55;9.00;;;;;;;14.97;86.58;100762.28;10359424;28;20371;-74
2022/08/14 05:33:42;;;;;;;16.73;13.02;;;;;;;15.11;86.29;100775.88;10331746;28;20138;-73
2022/08/14 05:38:46;;;;;;;10.23;8.50;;;;;;;15.30;86.31;100767.53;10323588;28;20038;-73
2022/08/14 05:43:46;;;;;;;13.60;9.50;;;;;;;15.45;85.33;100757.41;10395062;28;20030;-74
2022/08/14 05:48:55;;;;;;;14.32;10.45;;;;;;;15.85;85.91;100760.16;10374133;28;20042;-74
2022/08/14 05:53:55;;;;;;;9.77;7.85;;;;;;;17.66;81.87;100757.72;10398194;28;20032;-74
2022/08/14 05:58:56;;;;;;;13.77;7.75;;;;;;;19.87;71.77;100756.00;10397664;28;20116;-74
2022/08/14 06:03:56;;;;;;;8.77;7.00;;;;;;;21.74;62.30;100749.69;10382944;28;20518;-75
2022/08/14 06:08:57;;;;;;;16.13;7.77;;;;;;;23.06;58.35;100743.94;10399438;28;20072;-76
2022/08/14 06:13:57;;;;;;;8.20;7.33;;;;;;;24.46;54.32;100734.72;10398982;28;20043;-75
2022/08/14 06:18:58;;;;;;;10.77;7.27;;;;;;;25.71;47.90;100742.78;10397561;28;20524;-75
2022/08/14 06:23:59;;;;;;;7.78;6.57;;;;;;;26.05;50.02;100744.84;10400042;28;20048;-75
2022/08/14 06:28:59;;;;;;;7.97;7.13;;;;;;;26.40;49.83;100745.13;10403291;28;20034;-76
2022/08/14 06:34:00;;;;;;;10.87;7.73;;;;;;;26.75;47.93;100737.25;10405836;28;20069;-76
2022/08/14 06:39:01;;;;;;;11.15;7.68;;;;;;;27.99;43.84;100731.59;10406064;28;20128;-75
2022/08/14 06:44:01;;;;;;;;;;;;;;;29.07;42.42;100721.34;10402161;28;20064;-75
2022/08/14 06:49:02;;;;;;;23.07;20.03;;;;;;;29.97;40.07;100710.25;10387927;28;19967;-75
2022/08/14 06:54:02;;;;;;;17.80;14.73;;;;;;;30.82;35.94;100714.34;10405282;28;20057;-74
2022/08/14 06:59:03;;;;;;;10.98;8.52;;;;;;;30.75;36.39;100722.69;10406295;28;20394;-74
2022/08/14 07:09:23;;;;;;;8.70;7.85;;;;;;;31.90;34.61;100698.19;10416722;28;20041;-74
2022/08/14 07:14:23;;;;;;;9.85;6.30;;;;;;;32.18;33.03;100699.66;10445704;28;20064;-74
2022/08/14 07:19:24;;;;;;;14.25;12.82;;;;;;;32.38;32.74;100697.88;10444847;28;20067;-74
2022/08/14 07:24:24;;;;;;;8.45;7.65;;;;;;;32.60;33.86;100695.03;10444219;28;20057;-75
2022/08/14 07:29:29;;;;;;;12.15;8.35;;;;;;;32.68;32.42;100692.81;10439276;28;20047;-76
2022/08/14 07:34:31;;;;;;;10.25;6.47;;;;;;;32.17;32.96;100690.63;10442837;28;20060;-75
2022/08/14 07:39:42;;;;;;;10.35;9.00;;;;;;;32.56;33.52;100688.00;10388648;28;20382;-76
2022/08/14 07:44:44;;;;;;;7.30;6.63;;;;;;;32.68;31.70;100681.13;10386481;28;20397;-77
2022/08/14 07:50:00;;;;;;;10.52;6.53;;;;;;;33.29;31.66;100677.22;10385820;28;20116;-76
2022/08/14 07:55:01;;;;;;;9.35;6.85;;;;;;;33.84;32.75;100688.91;10368298;28;20065;-76
2022/08/14 08:00:02;;;;;;;9.85;5.80;;;;;;;33.43;31.83;100686.50;10349866;28;20124;-77
2022/08/14 08:05:03;;;;;;;7.22;6.03;;;;;;;33.59;30.13;100695.59;10386185;28;20108;-76
2022/08/14 08:15:31;;;;;;;8.43;5.82;;;;;;;35.22;27.36;100688.59;10385901;28;20038;-76
2022/08/14 08:20:33;;;;;;;9.73;5.95;;;;;;;35.14;28.62;100681.75;10402256;28;20416;-76
2022/08/14 08:25:36;;;;;;;10.52;6.47;;;;;;;34.41;28.50;100669.56;10383737;28;20034;-77
2022/08/14 08:30:39;;;;;;;8.48;6.18;;;;;;;34.60;29.82;100667.66;10401686;28;20029;-77
2022/08/14 08:35:40;;;;;;;8.23;7.40;;;;;;;35.39;28.06;100683.00;10397898;28;20034;-76
2022/08/14 08:40:41;;;;;;;6.65;5.90;;;;;;;36.26;27.86;100685.06;10401042;28;20037;-76
2022/08/14 08:45:42;;;;;;;7.03;6.28;;;;;;;36.84;27.45;100677.66;10386251;28;20032;-76
2022/08/14 08:50:42;;;;;;;7.45;6.53;;;;;;;36.22;27.11;100675.34;10397960;28;20037;-76
2022/08/14 08:55:44;;;;;;;12.20;6.38;;;;;;;36.95;25.85;100668.78;10401760;28;20124;-77
2022/08/14 09:00:47;;;;;;;8.88;6.40;;;;;;;36.66;25.79;100662.53;10400541;28;20037;-76
2022/08/14 09:05:55;;;;;;;11.02;7.03;;;;;;;36.95;25.83;100662.44;10399747;28;20492;-76
2022/08/14 09:10:55;;;;;;;7.43;6.72;;;;;;;37.16;27.01;100644.66;10420209;28;20098;-77
2022/08/14 09:15:56;;;;;;;7.30;6.55;;;;;;;37.30;25.47;100637.38;10419860;28;20991;-77
2022/08/14 09:20:57;;;;;;;7.20;5.47;;;;;;;38.37;24.18;100628.97;10420693;28;20112;-76
2022/08/14 09:25:58;;;;;;;9.52;5.63;;;;;;;38.43;23.00;100623.09;10417610;28;20072;-76
2022/08/14 09:30:58;;;;;;;7.20;6.20;;;;;;;38.38;22.78;100634.34;10436763;28;20037;-77
2022/08/14 09:36:29;;;;;;;6.22;5.55;;;;;;;38.40;22.10;100632.38;10410423;28;20453;-76
2022/08/14 09:41:44;;;;;;;9.80;5.80;;;;;;;37.92;23.59;100622.16;10399178;28;20034;-76
2022/08/14 09:46:54;;;;;;;8.52;6.65;;;;;;;37.46;23.40;100621.72;10393276;28;20042;-76
2022/08/14 09:52:13;;;;;;;6.15;5.55;;;;;;;37.90;23.28;100618.66;10421836;28;20382;-76
2022/08/14 09:57:26;;;;;;;7.43;4.88;;;;;;;37.65;22.30;100606.75;10405739;28;20048;-76
2022/08/14 10:02:29;;;;;;;8.00;6.10;;;;;;;38.18;22.74;100601.19;10423899;28;20037;-76
2022/08/14 10:07:49;;;;;;;6.85;6.00;;;;;;;37.44;23.98;100595.50;10427437;28;20047;-76
2022/08/14 10:12:50;;;;;;;7.60;6.05;;;;;;;38.01;23.82;100588.75;10396772;28;20395;-76
2022/08/14 10:18:06;;;;;;;6.88;5.82;;;;;;;37.81;23.61;100575.63;10395922;28;20127;-76
2022/08/14 10:23:11;;;;;;;9.70;5.38;;;;;;;37.53;24.12;100578.50;10399144;28;20061;-76
2022/08/14 10:28:14;;;;;;;7.32;5.18;;;;;;;38.00;23.04;100575.22;10388325;28;20720;-76
2022/08/14 10:33:30;;;;;;;7.78;5.60;;;;;;;37.90;24.28;100559.47;10371318;28;20038;-76
2022/08/14 10:38:33;;;;;;;7.05;5.68;;;;;;;38.21;22.28;100566.41;10348674;28;20038;-77
2022/08/14 10:43:33;;;;;;;8.95;6.72;;;;;;;38.52;21.98;100548.63;10362408;28;20037;-77
2022/08/14 10:48:34;;;;;;;9.07;8.15;;;;;;;39.57;20.96;100549.72;10388539;28;20038;-77
2022/08/14 10:53:36;;;;;;;6.45;5.85;;;;;;;39.00;21.99;100549.56;10352913;28;20037;-78
2022/08/14 10:58:36;;;;;;;5.13;4.63;;;;;;;39.42;20.91;100549.94;10363133;28;20053;-77
2022/08/14 11:03:41;;;;;;;8.15;6.63;;;;;;;39.02;19.94;100537.53;10357451;28;21683;-76
2022/08/14 11:08:42;;;;;;;6.57;4.60;;;;;;;37.17;22.47;100534.56;10379847;28;20042;-75
2022/08/14 11:13:42;;;;;;;6.38;4.72;;;;;;;35.90;22.62;100534.78;10400046;28;20041;-76
2022/08/14 11:18:44;;;;;;;8.48;5.25;;;;;;;33.14;25.34;100534.31;10386743;28;20034;-76
2022/08/14 11:23:46;;;;;;;7.70;5.00;;;;;;;31.45;29.92;100535.16;10387115;28;20044;-76
2022/08/14 11:28:48;;;;;;;18.92;16.20;;;;;;;31.63;29.56;100519.94;10385576;28;20121;-76
2022/08/14 11:33:51;;;;;;;6.55;5.28;;;;;;;32.53;28.23;100517.53;10368732;28;20048;-76
2022/08/14 11:38:52;;;;;;;6.13;4.93;;;;;;;31.59;29.23;100516.47;10385717;28;20056;-76
2022/08/14 11:43:53;;;;;;;5.40;4.55;;;;;;;33.53;28.12;100493.41;10386289;28;20045;-76
2022/08/14 11:48:54;;;;;;;;;;;;;;;37.28;22.47;100475.66;10371376;28;20029;-77
2022/08/14 11:53:56;;;;;;;5.57;4.72;;;;;;;36.74;21.47;100481.16;10385731;28;19925;-78
2022/08/14 11:58:57;;;;;;;7.93;5.25;;;;;;;34.32;25.79;100476.34;10369257;28;20171;-77
2022/08/14 12:04:18;;;;;;;10.60;4.97;;;;;;;35.68;26.38;100465.41;10386468;28;20079;-78
2022/08/14 12:09:31;;;;;;;;;;;;;;;36.08;23.44;100452.91;10386493;28;20037;-76
2022/08/14 12:14:32;;;;;;;7.72;4.18;;;;;;;35.14;23.85;100453.34;10385079;28;19925;-75
2022/08/14 12:20:05;;;;;;;5.53;4.20;;;;;;;38.08;22.17;100449.00;10385342;28;20563;-76
2022/08/14 12:25:07;;;;;;;8.00;5.18;;;;;;;37.83;21.15;100442.63;10357190;28;20521;-77
2022/08/14 12:30:11;;;;;;;7.00;5.15;;;;;;;35.25;23.28;100430.03;10352977;28;20056;-78
2022/08/14 12:35:12;;;;;;;5.15;4.55;;;;;;;35.92;22.92;100412.19;10368765;28;20030;-77
2022/08/14 12:40:14;;;;;;;7.28;5.13;;;;;;;34.73;23.25;100405.13;10383248;28;20041;-77
2022/08/14 12:45:15;;;;;;;6.63;5.25;;;;;;;35.34;24.15;100409.56;10368355;28;20069;-76
2022/08/14 12:50:18;;;;;;;4.85;3.83;;;;;;;37.05;20.22;100398.22;10383829;28;20108;-79
2022/08/14 12:55:19;;;;;;;4.47;4.07;;;;;;;37.75;21.68;100402.25;10383733;28;20140;-78
2022/08/14 13:00:21;;;;;;;6.28;5.63;;;;;;;36.71;21.52;100385.09;10415903;28;20499;-78
2022/08/14 13:05:28;;;;;;;7.15;4.65;;;;;;;36.81;21.00;100388.91;10443974;28;20040;-78
2022/08/14 13:10:31;;;;;;;13.65;5.03;;;;;;;37.87;20.36;100384.06;10424986;28;20672;-78
2022/08/14 13:15:32;;;;;;;7.43;4.45;;;;;;;38.21;19.86;100376.06;10385512;28;20112;-78
2022/08/14 13:20:33;;;;;;;4.85;3.80;;;;;;;38.78;18.84;100371.66;10383767;28;20124;-78
2022/08/14 13:25:34;;;;;;;7.50;4.53;;;;;;;38.82;18.29;100364.03;10393595;28;20025;-78
2022/08/14 13:30:35;;;;;;;6.13;4.25;;;;;;;37.94;18.51;100366.25;10407901;28;20036;-78
2022/08/14 13:35:35;;;;;;;8.73;4.65;;;;;;;37.71;18.80;100359.78;10407171;28;20048;-79
2022/08/14 13:40:36;;;;;;;4.88;3.63;;;;;;;37.65;19.40;100344.75;10441998;28;20075;-78
2022/08/14 13:45:36;;;;;;;7.43;3.88;;;;;;;38.38;18.69;100344.69;10382793;28;20041;-78
2022/08/14 13:50:38;;;;;;;6.30;3.80;;;;;;;38.50;19.22;100348.34;10399595;28;20055;-77
2022/08/14 13:55:38;;;;;;;6.90;4.07;;;;;;;39.14;17.83;100332.41;10403409;28;20033;-77
2022/08/14 14:00:39;;;;;;;5.30;4.15;;;;;;;39.39;18.52;100327.66;10343598;28;20045;-77
2022/08/14 14:05:39;;;;;;;8.38;4.57;;;;;;;39.26;17.69;100314.09;10374147;28;20121;-77
2022/08/14 14:10:40;;;;;;;4.68;4.18;;;;;;;39.58;17.25;100316.03;10396577;28;20037;-78
2022/08/14 14:15:40;;;;;;;5.65;4.85;;;;;;;37.31;19.25;100314.47;10400806;28;20033;-79
2022/08/14 14:20:43;;;;;;;5.05;4.03;;;;;;;36.85;19.54;100311.38;10363974;28;20410;-78
2022/08/14 14:25:44;;;;;;;8.70;4.55;;;;;;;36.70;20.22;100310.66;10362929;28;20477;-77
2022/08/14 14:30:45;;;;;;;4.03;3.60;;;;;;;36.94;19.73;100301.69;10419852;28;20450;-76
2022/08/14 14:35:46;;;;;;;5.15;3.70;;;;;;;37.00;20.85;100303.09;10418194;28;20102;-77
2022/08/14 14:40:47;;;;;;;4.60;3.90;;;;;;;36.76;20.96;100300.28;10421637;28;20441;-77
2022/08/14 14:45:49;;;;;;;6.30;4.38;;;;;;;35.64;21.88;100292.44;10413545;28;20049;-76
2022/08/14 14:50:51;;;;;;;4.03;3.60;;;;;;;34.49;23.07;100296.16;10381945;28;20132;-77
2022/08/14 14:55:52;;;;;;;5.97;4.55;;;;;;;35.08;24.40;100289.75;10413789;28;20047;-77
2022/08/14 15:00:53;;;;;;;5.28;3.85;;;;;;;35.54;21.08;100286.75;10429097;28;20047;-77
2022/08/14 15:05:55;;;;;;;5.97;4.18;;;;;;;35.89;22.42;100281.75;10400165;28;20485;-77
2022/08/14 15:10:58;;;;;;;4.40;3.67;;;;;;;35.88;21.06;100269.97;10449688;28;20041;-76
2022/08/14 15:15:59;;;;;;;4.20;3.80;;;;;;;36.12;22.84;100267.44;10445131;28;20048;-76
2022/08/14 15:21:01;;;;;;;5.60;4.30;;;;;;;36.28;21.31;100266.38;10443422;28;20564;-76
2022/08/14 15:26:01;;;;;;;5.88;3.85;;;;;;;36.18;20.98;100260.69;10428882;28;20106;-77
2022/08/14 15:31:02;;;;;;;6.78;3.88;;;;;;;35.38;22.45;100258.81;10427643;28;20037;-76
2022/08/14 15:36:04;;;;;;;6.97;4.18;;;;;;;34.67;22.75;100250.63;10426697;28;20434;-76
2022/08/14 15:41:04;;;;;;;4.75;3.83;;;;;;;33.20;26.45;100254.78;10428281;28;20029;-77
2022/08/14 15:46:06;;;;;;;6.28;4.05;;;;;;;32.14;28.95;100246.06;10410750;28;20056;-76
2022/08/14 15:51:22;;;;;;;6.13;4.40;;;;;;;31.84;31.17;100244.00;10385675;28;20037;-76
2022/08/14 15:56:22;;;;;;;6.15;3.83;;;;;;;31.39;34.70;100236.28;10426411;28;20045;-76
2022/08/14 16:01:24;;;;;;;4.65;3.67;;;;;;;31.32;32.41;100249.19;10426653;28;20073;-78
2022/08/14 16:06:29;;;;;;;6.85;4.70;;;;;;;31.39;30.38;100235.38;10407634;28;20048;-76
2022/08/14 16:11:29;;;;;;;4.65;3.70;;;;;;;31.28;34.36;100227.81;10410875;28;20040;-77
2022/08/14 16:16:30;;;;;;;6.03;4.55;;;;;;;30.94;35.65;100226.72;10424165;28;20063;-77
2022/08/14 16:21:30;;;;;;;9.27;4.77;;;;;;;30.24;37.30;100225.38;10426997;28;20029;-77
2022/08/14 16:26:31;;;;;;;5.23;4.43;;;;;;;29.95;33.54;100229.31;10409328;28;20331;-77
2022/08/14 16:31:32;;;;;;;7.37;4.70;;;;;;;29.74;38.02;100221.19;10426645;28;20025;-77
2022/08/14 16:36:33;;;;;;;7.13;4.75;;;;;;;29.57;37.50;100224.63;10423473;28;20045;-77
2022/08/14 16:41:33;;;;;;;;;;;;;;;29.31;42.12;100218.47;10409312;28;20047;-78
2022/08/14 16:46:43;;;;;;;5.67;4.30;;;;;;;28.91;46.32;100214.69;10425370;28;20275;-78
2022/08/14 16:51:44;;;;;;;6.10;4.93;;;;;;;28.43;41.90;100203.88;10409598;28;20119;-77
2022/08/14 16:56:44;;;;;;;5.93;4.73;;;;;;;28.15;44.26;100212.97;10424362;28;20481;-77
2022/08/14 17:01:59;;;;;;;7.37;5.07;;;;;;;27.75;43.44;100195.53;10407397;28;20041;-76
2022/08/14 17:07:01;;;;;;;8.00;5.20;;;;;;;27.43;47.80;100192.09;10419778;28;20036;-76
2022/08/14 17:12:15;;;;;;;5.90;4.22;;;;;;;27.12;43.76;100191.28;10406537;28;20075;-77
2022/08/14 17:17:17;;;;;;;5.22;4.10;;;;;;;27.03;45.54;100181.72;10408862;28;20044;-77
2022/08/14 17:22:18;;;;;;;5.95;4.22;;;;;;;26.90;49.47;100186.56;10419974;28;20090;-77
2022/08/14 17:27:21;;;;;;;8.70;5.03;;;;;;;26.64;48.76;100180.16;10389387;28;20048;-78
2022/08/14 17:32:21;;;;;;;6.85;4.22;;;;;;;26.46;45.83;100180.72;10422720;28;20566;-77
2022/08/14 17:37:30;;;;;;;6.10;4.70;;;;;;;26.25;49.06;100177.75;10404707;28;20045;-78
2022/08/14 17:42:51;;;;;;;6.43;4.90;;;;;;;26.00;49.46;100172.16;10415964;28;20374;-78
2022/08/14 17:47:51;;;;;;;8.57;4.73;;;;;;;25.93;49.28;100175.00;10427853;28;20048;-77
2022/08/14 17:52:52;;;;;;;5.27;4.53;;;;;;;25.80;49.09;100177.13;10414349;28;20696;-77
2022/08/14 17:57:53;;;;;;;9.13;4.77;;;;;;;25.63;50.65;100171.34;10405697;28;20099;-78
2022/08/14 18:02:56;;;;;;;18.17;5.53;;;;;;;25.50;50.69;100178.81;10432797;28;20087;-77
2022/08/14 18:07:56;;;;;;;8.48;5.00;;;;;;;25.33;50.16;100172.06;10404806;28;20033;-81
2022/08/14 18:12:57;;;;;;;12.87;6.30;;;;;;;25.18;51.82;100173.28;10386640;28;20034;-80
2022/08/14 18:18:04;;;;;;;5.53;4.88;;;;;;;24.97;52.60;100171.13;10421629;28;20037;-78
2022/08/14 18:23:05;;;;;;;6.55;4.70;;;;;;;24.82;54.98;100170.56;10419200;28;20040;-77
2022/08/14 18:28:11;;;;;;;7.03;5.75;;;;;;;24.65;53.34;100176.28;10430391;28;20439;-79
2022/08/14 18:33:21;;;;;;;7.82;5.97;;;;;;;24.48;52.46;100171.28;10380624;28;20078;-79
2022/08/14 18:38:25;;;;;;;6.63;5.20;;;;;;;24.32;53.67;100170.72;10415140;28;20049;-80
2022/08/14 18:43:44;;;;;;;9.07;5.32;;;;;;;24.13;53.29;100173.75;10386860;28;20053;-80
2022/08/14 18:48:44;;;;;;;9.57;6.40;;;;;;;23.96;53.83;100176.72;10412129;28;20033;-79
2022/08/14 18:53:58;;;;;;;6.67;5.60;;;;;;;23.76;56.71;100179.78;10435335;28;20124;-80
2022/08/14 18:58:59;;;;;;;8.02;5.63;;;;;;;23.63;58.56;100178.22;10402943;28;20041;-78
2022/08/14 19:04:00;;;;;;;10.93;5.80;;;;;;;23.42;56.85;100178.53;10446676;28;20068;-79
2022/08/14 19:09:02;;;;;;;9.70;6.13;;;;;;;23.27;57.28;100181.47;10411082;28;20112;-78
2022/08/14 19:14:04;;;;;;;8.10;6.43;;;;;;;23.09;58.87;100177.28;10400706;28;20068;-78
2022/08/14 19:19:06;;;;;;;6.25;5.65;;;;;;;22.86;58.42;100179.34;10424113;28;20052;-78
2022/08/14 19:24:18;;;;;;;9.43;6.45;;;;;;;22.73;58.02;100172.44;10427228;28;20037;-76
2022/08/14 19:29:25;;;;;;;6.85;6.03;;;;;;;22.65;59.99;100180.56;10412220;28;20048;-77
2022/08/14 19:34:41;;;;;;;7.82;5.88;;;;;;;22.48;62.04;100174.56;10409578;28;20057;-77
2022/08/14 19:39:52;;;;;;;7.95;6.45;;;;;;;22.39;60.73;100173.75;10470753;28;20512;-77
2022/08/14 19:44:53;;;;;;;8.57;5.70;;;;;;;22.30;61.24;100172.06;10388677;28;20543;-77
2022/08/14 19:49:54;;;;;;;8.57;6.00;;;;;;;22.22;61.63;100181.91;10368449;28;20128;-76
2022/08/14 19:54:54;;;;;;;12.33;10.93;;;;;;;22.13;61.19;100177.59;10383016;28;20409;-77
2022/08/14 20:00:07;;;;;;;57.17;44.97;;;;;;;22.05;61.34;100176.78;10369677;28;20049;-79
2022/08/14 20:05:08;;;;;;;35.33;30.10;;;;;;;22.00;60.31;100178.63;10386659;28;20099;-76
2022/08/14 20:10:27;;;;;;;56.25;47.22;;;;;;;21.97;60.79;100186.66;10383939;28;20040;-78
2022/08/14 20:15:32;;;;;;;19.92;14.75;;;;;;;21.91;61.14;100168.94;10355922;28;20045;-77
2022/08/14 20:20:40;;;;;;;11.05;7.82;;;;;;;21.84;60.46;100165.47;10371408;28;20420;-77
2022/08/14 20:25:42;;;;;;;11.30;6.03;;;;;;;21.83;60.25;100170.78;10368307;28;20378;-77
2022/08/14 20:30:42;;;;;;;;;;;;;;;21.69;61.63;100171.81;10410663;28;20037;-77
2022/08/14 20:35:47;;;;;;;12.60;6.68;;;;;;;21.60;62.33;100171.00;10443886;28;19924;-77
2022/08/14 20:40:49;;;;;;;9.52;6.40;;;;;;;21.51;63.05;100170.19;10392821;28;20132;-78
2022/08/14 20:45:50;;;;;;;10.63;7.38;;;;;;;21.42;63.62;100162.28;10424531;28;20033;-77
2022/08/14 20:50:50;;;;;;;11.85;8.02;;;;;;;21.35;63.41;100163.22;10424654;28;20040;-77
2022/08/14 20:55:51;;;;;;;11.20;7.13;;;;;;;21.33;62.93;100152.56;10424895;28;20041;-77
2022/08/14 21:01:10;;;;;;;12.30;6.95;;;;;;;21.42;63.30;100143.63;10408547;28;20156;-77
2022/08/14 21:06:24;;;;;;;11.70;7.88;;;;;;;21.44;63.21;100148.94;10393309;28;20036;-78
2022/08/14 21:11:25;;;;;;;9.93;7.47;;;;;;;21.37;63.08;100145.44;10426401;28;20063;-77
2022/08/14 21:16:25;;;;;;;14.43;7.72;;;;;;;21.34;63.01;100140.16;10392164;28;20549;-77
2022/08/14 21:21:27;;;;;;;9.88;7.72;;;;;;;21.29;64.02;100140.19;10423658;28;20473;-77
2022/08/14 21:26:29;;;;;;;8.48;7.57;;;;;;;21.67;60.36;100141.66;10421966;28;20508;-77
2022/08/14 21:31:30;;;;;;;10.45;7.35;;;;;;;21.61;61.97;100132.81;10408504;28;20057;-77
2022/08/14 21:36:31;;;;;;;10.30;7.90;;;;;;;21.48;63.24;100140.03;10441400;28;20119;-77
2022/08/14 21:41:36;;;;;;;11.45;8.30;;;;;;;21.29;63.61;100142.84;10407516;28;20443;-77
2022/08/14 21:46:41;;;;;;;11.43;7.10;;;;;;;21.22;64.82;100135.81;10438185;28;20041;-78
2022/08/14 21:52:03;;;;;;;10.07;7.57;;;;;;;21.21;63.65;100126.94;10424141;28;20029;-77
2022/08/14 21:57:14;;;;;;;;;;;;;;;21.22;64.15;100125.16;10391690;28;20083;-77
2022/08/14 22:02:39;;;;;;;12.60;7.47;;;;;;;21.13;65.20;100129.66;10374272;28;19921;-77
2022/08/14 22:07:40;;;;;;;10.20;7.40;;;;;;;21.25;65.07;100127.78;10381745;28;20914;-77
2022/08/14 22:12:41;;;;;;;9.98;7.40;;;;;;;21.17;65.61;100121.66;10381641;28;20037;-77
2022/08/14 22:17:42;;;;;;;11.05;7.32;;;;;;;20.98;65.75;100119.13;10429450;28;20059;-77
2022/08/14 22:22:42;;;;;;;7.90;7.03;;;;;;;20.99;65.66;100123.56;10421984;28;20037;-77
2022/08/14 22:27:43;;;;;;;8.43;7.15;;;;;;;20.90;65.75;100118.31;10405860;28;20099;-77
2022/08/14 22:32:44;;;;;;;9.00;6.85;;;;;;;20.90;65.04;100112.97;10405211;28;20441;-80
2022/08/14 22:37:44;;;;;;;9.07;7.03;;;;;;;20.81;66.43;100111.28;10391569;28;20057;-77
2022/08/14 22:42:45;;;;;;;8.18;7.22;;;;;;;20.73;67.31;100105.97;10404961;28;20048;-77
2022/08/14 22:47:45;;;;;;;10.18;8.65;;;;;;;20.74;68.59;100126.34;10422960;28;20373;-77
2022/08/14 22:52:46;;;;;;;8.35;7.18;;;;;;;20.60;67.63;100117.56;10420653;28;20477;-77
2022/08/14 22:57:46;;;;;;;8.27;6.95;;;;;;;20.70;66.93;100116.63;10421245;28;20140;-78
2022/08/14 23:02:47;;;;;;;8.75;7.18;;;;;;;20.46;68.56;100126.50;10423199;28;20518;-78
2022/08/14 23:07:49;;;;;;;9.27;6.80;;;;;;;20.24;69.33;100123.94;10422071;28;20119;-77
2022/08/14 23:12:50;;;;;;;9.70;7.10;;;;;;;20.05;69.60;100122.25;10412606;28;20123;-78
2022/08/14 23:17:51;;;;;;;8.63;7.28;;;;;;;19.82;70.87;100115.19;10430673;28;20056;-78
2022/08/14 23:22:52;;;;;;;9.48;7.72;;;;;;;19.62;72.00;100118.78;10387242;28;20053;-78
2022/08/14 23:27:52;;;;;;;10.13;8.13;;;;;;;19.61;71.88;100119.66;10371273;28;20034;-78
2022/08/14 23:32:53;;;;;;;9.43;8.13;;;;;;;19.55;72.79;100118.78;10412790;28;20037;-77